sensor_id;sensor_type;location;lat;lon;timestamp;P1;durP1;ratioP1;P2;durP2;ratioP2
59390;SDS011;53405;57.012;40.984;2023-09-12T00:01:25;11.10;;;7.32;;
59390;SDS011;53405;57.012;40.984;2023-09-12T00:03:52;10.95;;;6.50;;
59390;SDS011;53405;57.012;40.984;2023-09-12T00:06:20;13.07;;;6.88;;
59390;SDS011;53405;57.012;40.984;2023-09-12T00:08:48;11.63;;;6.72;;
59390;SDS011;53405;57.012;40.984;2023-09-12T00:11:15;14.88;;;6.78;;
59390;SDS011;53405;57.012;40.984;2023-09-12T00:13:43;9.45;;;6.50;;
59390;SDS011;53405;57.012;40.984;2023-09-12T00:16:11;11.27;;;6.38;;
59390;SDS011;53405;57.012;40.984;2023-09-12T00:18:39;11.55;;;6.47;;
59390;SDS011;53405;57.012;40.984;2023-09-12T00:21:07;10.27;;;6.30;;
59390;SDS011;53405;57.012;40.984;2023-09-12T00:23:35;10.40;;;6.78;;
59390;SDS011;53405;57.012;40.984;2023-09-12T00:26:03;11.17;;;6.37;;
59390;SDS011;53405;57.012;40.984;2023-09-12T00:28:31;13.07;;;6.93;;
59390;SDS011;53405;57.012;40.984;2023-09-12T00:31:00;16.73;;;6.63;;
59390;SDS011;53405;57.012;40.984;2023-09-12T00:33:28;11.13;;;7.35;;
59390;SDS011;53405;57.012;40.984;2023-09-12T00:35:56;9.95;;;7.07;;
59390;SDS011;53405;57.012;40.984;2023-09-12T00:38:23;11.63;;;7.47;;
59390;SDS011;53405;57.012;40.984;2023-09-12T00:40:51;12.02;;;6.85;;
59390;SDS011;53405;57.012;40.984;2023-09-12T00:43:19;10.60;;;7.35;;
59390;SDS011;53405;57.012;40.984;2023-09-12T00:45:47;11.93;;;7.72;;
59390;SDS011;53405;57.012;40.984;2023-09-12T00:48:14;10.45;;;6.97;;
59390;SDS011;53405;57.012;40.984;2023-09-12T00:50:45;14.27;;;7.30;;
59390;SDS011;53405;57.012;40.984;2023-09-12T00:53:14;11.50;;;6.55;;
59390;SDS011;53405;57.012;40.984;2023-09-12T00:55:45;12.68;;;7.15;;
59390;SDS011;53405;57.012;40.984;2023-09-12T00:58:23;10.52;;;6.80;;
59390;SDS011;53405;57.012;40.984;2023-09-12T01:00:52;10.48;;;6.80;;
59390;SDS011;53405;57.012;40.984;2023-09-12T01:03:20;11.55;;;7.07;;
59390;SDS011;53405;57.012;40.984;2023-09-12T01:05:48;10.02;;;6.95;;
59390;SDS011;53405;57.012;40.984;2023-09-12T01:08:16;11.02;;;7.07;;
59390;SDS011;53405;57.012;40.984;2023-09-12T01:10:44;11.35;;;7.30;;
59390;SDS011;53405;57.012;40.984;2023-09-12T01:13:14;10.32;;;7.32;;
59390;SDS011;53405;57.012;40.984;2023-09-12T01:15:42;13.60;;;6.60;;
59390;SDS011;53405;57.012;40.984;2023-09-12T01:18:11;10.85;;;6.90;;
59390;SDS011;53405;57.012;40.984;2023-09-12T01:20:39;9.80;;;6.75;;
59390;SDS011;53405;57.012;40.984;2023-09-12T01:26:24;10.15;;;7.00;;
59390;SDS011;53405;57.012;40.984;2023-09-12T01:29:05;9.23;;;6.47;;
59390;SDS011;53405;57.012;40.984;2023-09-12T01:31:35;11.20;;;6.50;;
59390;SDS011;53405;57.012;40.984;2023-09-12T01:34:10;8.15;;;5.70;;
59390;SDS011;53405;57.012;40.984;2023-09-12T01:36:40;12.43;;;6.55;;
59390;SDS011;53405;57.012;40.984;2023-09-12T01:39:08;9.63;;;6.32;;
59390;SDS011;53405;57.012;40.984;2023-09-12T01:41:38;7.97;;;5.70;;
59390;SDS011;53405;57.012;40.984;2023-09-12T01:44:08;10.50;;;6.60;;
59390;SDS011;53405;57.012;40.984;2023-09-12T01:46:37;9.73;;;6.13;;
59390;SDS011;53405;57.012;40.984;2023-09-12T01:49:06;9.13;;;6.10;;
59390;SDS011;53405;57.012;40.984;2023-09-12T01:51:36;8.98;;;6.30;;
59390;SDS011;53405;57.012;40.984;2023-09-12T01:54:04;10.20;;;5.90;;
59390;SDS011;53405;57.012;40.984;2023-09-12T01:56:33;8.15;;;5.32;;
59390;SDS011;53405;57.012;40.984;2023-09-12T01:59:02;8.52;;;6.18;;
59390;SDS011;53405;57.012;40.984;2023-09-12T02:01:30;10.07;;;6.00;;
59390;SDS011;53405;57.012;40.984;2023-09-12T02:03:58;9.70;;;5.78;;
59390;SDS011;53405;57.012;40.984;2023-09-12T02:06:28;8.63;;;6.13;;
59390;SDS011;53405;57.012;40.984;2023-09-12T02:08:56;9.57;;;6.10;;
59390;SDS011;53405;57.012;40.984;2023-09-12T02:11:25;8.93;;;6.00;;
59390;SDS011;53405;57.012;40.984;2023-09-12T02:13:54;8.52;;;6.05;;
59390;SDS011;53405;57.012;40.984;2023-09-12T02:16:22;8.30;;;6.00;;
59390;SDS011;53405;57.012;40.984;2023-09-12T02:18:50;9.70;;;6.20;;
59390;SDS011;53405;57.012;40.984;2023-09-12T02:21:18;12.82;;;7.15;;
59390;SDS011;53405;57.012;40.984;2023-09-12T02:23:46;12.15;;;7.80;;
59390;SDS011;53405;57.012;40.984;2023-09-12T02:26:14;13.93;;;8.50;;
59390;SDS011;53405;57.012;40.984;2023-09-12T02:28:42;12.60;;;7.78;;
59390;SDS011;53405;57.012;40.984;2023-09-12T02:31:10;21.02;;;8.85;;
59390;SDS011;53405;57.012;40.984;2023-09-12T02:33:39;12.93;;;8.18;;
59390;SDS011;53405;57.012;40.984;2023-09-12T02:36:07;12.25;;;7.75;;
59390;SDS011;53405;57.012;40.984;2023-09-12T02:38:35;13.77;;;8.40;;
59390;SDS011;53405;57.012;40.984;2023-09-12T02:41:03;14.82;;;8.80;;
59390;SDS011;53405;57.012;40.984;2023-09-12T02:43:31;17.15;;;9.18;;
59390;SDS011;53405;57.012;40.984;2023-09-12T02:45:59;15.10;;;8.90;;
59390;SDS011;53405;57.012;40.984;2023-09-12T02:48:27;14.27;;;8.70;;
59390;SDS011;53405;57.012;40.984;2023-09-12T02:50:55;12.48;;;8.07;;
59390;SDS011;53405;57.012;40.984;2023-09-12T02:53:23;13.02;;;7.80;;
59390;SDS011;53405;57.012;40.984;2023-09-12T02:55:51;13.88;;;8.20;;
59390;SDS011;53405;57.012;40.984;2023-09-12T02:58:18;10.98;;;7.38;;
59390;SDS011;53405;57.012;40.984;2023-09-12T03:00:47;12.52;;;7.45;;
59390;SDS011;53405;57.012;40.984;2023-09-12T03:03:17;15.80;;;7.90;;
59390;SDS011;53405;57.012;40.984;2023-09-12T03:05:45;11.35;;;7.22;;
59390;SDS011;53405;57.012;40.984;2023-09-12T03:08:13;13.00;;;7.80;;
59390;SDS011;53405;57.012;40.984;2023-09-12T03:10:41;13.77;;;8.38;;
59390;SDS011;53405;57.012;40.984;2023-09-12T03:13:11;22.38;;;9.77;;
59390;SDS011;53405;57.012;40.984;2023-09-12T03:15:39;13.20;;;8.68;;
59390;SDS011;53405;57.012;40.984;2023-09-12T03:18:09;11.45;;;7.35;;
59390;SDS011;53405;57.012;40.984;2023-09-12T03:20:38;13.10;;;7.28;;
59390;SDS011;53405;57.012;40.984;2023-09-12T03:23:06;9.35;;;5.88;;
59390;SDS011;53405;57.012;40.984;2023-09-12T03:25:35;10.77;;;6.70;;
59390;SDS011;53405;57.012;40.984;2023-09-12T03:28:04;9.60;;;6.22;;
59390;SDS011;53405;57.012;40.984;2023-09-12T03:30:34;9.65;;;5.80;;
59390;SDS011;53405;57.012;40.984;2023-09-12T03:33:03;10.38;;;6.18;;
59390;SDS011;53405;57.012;40.984;2023-09-12T03:35:32;8.88;;;5.78;;
59390;SDS011;53405;57.012;40.984;2023-09-12T03:38:00;10.02;;;6.68;;
59390;SDS011;53405;57.012;40.984;2023-09-12T03:40:28;9.15;;;6.20;;
59390;SDS011;53405;57.012;40.984;2023-09-12T03:43:00;9.23;;;5.50;;
59390;SDS011;53405;57.012;40.984;2023-09-12T03:45:28;8.90;;;5.72;;
59390;SDS011;53405;57.012;40.984;2023-09-12T03:47:55;9.48;;;5.55;;
59390;SDS011;53405;57.012;40.984;2023-09-12T03:50:23;7.90;;;5.28;;
59390;SDS011;53405;57.012;40.984;2023-09-12T03:52:51;8.93;;;5.93;;
59390;SDS011;53405;57.012;40.984;2023-09-12T03:55:19;9.35;;;5.60;;
59390;SDS011;53405;57.012;40.984;2023-09-12T03:57:48;7.82;;;4.95;;
59390;SDS011;53405;57.012;40.984;2023-09-12T04:00:17;8.43;;;5.93;;
59390;SDS011;53405;57.012;40.984;2023-09-12T04:02:47;8.00;;;5.25;;
59390;SDS011;53405;57.012;40.984;2023-09-12T04:05:15;6.18;;;4.45;;
59390;SDS011;53405;57.012;40.984;2023-09-12T04:07:43;6.80;;;4.57;;
59390;SDS011;53405;57.012;40.984;2023-09-12T04:10:11;6.78;;;4.65;;
59390;SDS011;53405;57.012;40.984;2023-09-12T04:12:39;6.25;;;4.13;;
59390;SDS011;53405;57.012;40.984;2023-09-12T04:15:07;6.93;;;4.93;;
59390;SDS011;53405;57.012;40.984;2023-09-12T04:17:36;7.05;;;4.70;;
59390;SDS011;53405;57.012;40.984;2023-09-12T04:20:04;7.53;;;5.00;;
59390;SDS011;53405;57.012;40.984;2023-09-12T04:22:33;8.53;;;4.77;;
59390;SDS011;53405;57.012;40.984;2023-09-12T04:25:01;7.40;;;4.90;;
59390;SDS011;53405;57.012;40.984;2023-09-12T04:27:29;7.13;;;4.90;;
59390;SDS011;53405;57.012;40.984;2023-09-12T04:29:57;6.80;;;4.50;;
59390;SDS011;53405;57.012;40.984;2023-09-12T04:32:25;8.60;;;4.78;;
59390;SDS011;53405;57.012;40.984;2023-09-12T04:34:52;7.40;;;4.80;;
59390;SDS011;53405;57.012;40.984;2023-09-12T04:37:20;9.27;;;4.65;;
59390;SDS011;53405;57.012;40.984;2023-09-12T04:39:48;7.57;;;4.57;;
59390;SDS011;53405;57.012;40.984;2023-09-12T04:42:16;7.30;;;4.50;;
59390;SDS011;53405;57.012;40.984;2023-09-12T04:44:44;7.60;;;4.93;;
59390;SDS011;53405;57.012;40.984;2023-09-12T04:47:11;7.97;;;4.60;;
59390;SDS011;53405;57.012;40.984;2023-09-12T04:49:41;9.15;;;4.85;;
59390;SDS011;53405;57.012;40.984;2023-09-12T04:52:11;7.38;;;4.75;;
59390;SDS011;53405;57.012;40.984;2023-09-12T04:54:39;7.53;;;4.93;;
59390;SDS011;53405;57.012;40.984;2023-09-12T04:57:07;7.78;;;4.55;;
59390;SDS011;53405;57.012;40.984;2023-09-12T04:59:36;6.30;;;4.80;;
59390;SDS011;53405;57.012;40.984;2023-09-12T05:02:03;10.98;;;5.40;;
59390;SDS011;53405;57.012;40.984;2023-09-12T05:04:31;8.93;;;5.40;;
59390;SDS011;53405;57.012;40.984;2023-09-12T05:06:59;8.93;;;4.63;;
59390;SDS011;53405;57.012;40.984;2023-09-12T05:09:28;6.25;;;4.40;;
59390;SDS011;53405;57.012;40.984;2023-09-12T05:11:56;7.68;;;4.80;;
59390;SDS011;53405;57.012;40.984;2023-09-12T05:14:24;7.97;;;4.85;;
59390;SDS011;53405;57.012;40.984;2023-09-12T05:16:53;8.48;;;4.38;;
59390;SDS011;53405;57.012;40.984;2023-09-12T05:19:21;7.18;;;4.50;;
59390;SDS011;53405;57.012;40.984;2023-09-12T05:21:49;9.52;;;5.43;;
59390;SDS011;53405;57.012;40.984;2023-09-12T05:24:16;8.57;;;5.07;;
59390;SDS011;53405;57.012;40.984;2023-09-12T05:26:44;8.13;;;4.80;;
59390;SDS011;53405;57.012;40.984;2023-09-12T05:29:12;10.20;;;5.03;;
59390;SDS011;53405;57.012;40.984;2023-09-12T05:31:40;9.80;;;4.78;;
59390;SDS011;53405;57.012;40.984;2023-09-12T05:34:08;8.43;;;4.53;;
59390;SDS011;53405;57.012;40.984;2023-09-12T05:36:36;11.20;;;6.30;;
59390;SDS011;53405;57.012;40.984;2023-09-12T05:39:04;10.15;;;4.78;;
59390;SDS011;53405;57.012;40.984;2023-09-12T05:41:33;10.52;;;4.95;;
59390;SDS011;53405;57.012;40.984;2023-09-12T05:44:01;11.07;;;4.88;;
59390;SDS011;53405;57.012;40.984;2023-09-12T05:46:29;12.43;;;5.32;;
59390;SDS011;53405;57.012;40.984;2023-09-12T05:48:57;8.13;;;4.60;;
59390;SDS011;53405;57.012;40.984;2023-09-12T05:51:25;9.35;;;5.40;;
59390;SDS011;53405;57.012;40.984;2023-09-12T05:53:52;9.38;;;5.10;;
59390;SDS011;53405;57.012;40.984;2023-09-12T05:56:20;9.93;;;5.25;;
59390;SDS011;53405;57.012;40.984;2023-09-12T05:58:48;7.43;;;4.90;;
59390;SDS011;53405;57.012;40.984;2023-09-12T06:01:23;10.68;;;5.50;;
59390;SDS011;53405;57.012;40.984;2023-09-12T06:03:50;9.73;;;5.32;;
59390;SDS011;53405;57.012;40.984;2023-09-12T06:06:18;7.45;;;4.90;;
59390;SDS011;53405;57.012;40.984;2023-09-12T06:08:46;10.07;;;5.40;;
59390;SDS011;53405;57.012;40.984;2023-09-12T06:11:13;10.27;;;5.13;;
59390;SDS011;53405;57.012;40.984;2023-09-12T06:13:41;10.55;;;5.07;;
59390;SDS011;53405;57.012;40.984;2023-09-12T06:16:09;20.13;;;5.55;;
59390;SDS011;53405;57.012;40.984;2023-09-12T06:18:36;7.03;;;4.57;;
59390;SDS011;53405;57.012;40.984;2023-09-12T06:21:04;7.68;;;4.63;;
59390;SDS011;53405;57.012;40.984;2023-09-12T06:23:35;11.30;;;5.43;;
59390;SDS011;53405;57.012;40.984;2023-09-12T06:26:03;6.93;;;4.78;;
59390;SDS011;53405;57.012;40.984;2023-09-12T06:28:31;9.30;;;5.93;;
59390;SDS011;53405;57.012;40.984;2023-09-12T06:30:59;8.85;;;5.30;;
59390;SDS011;53405;57.012;40.984;2023-09-12T06:33:27;9.00;;;5.35;;
59390;SDS011;53405;57.012;40.984;2023-09-12T06:35:55;8.30;;;4.53;;
59390;SDS011;53405;57.012;40.984;2023-09-12T06:38:23;6.97;;;4.80;;
59390;SDS011;53405;57.012;40.984;2023-09-12T06:40:51;10.32;;;5.15;;
59390;SDS011;53405;57.012;40.984;2023-09-12T06:43:19;9.52;;;4.40;;
59390;SDS011;53405;57.012;40.984;2023-09-12T06:45:47;9.63;;;4.57;;
59390;SDS011;53405;57.012;40.984;2023-09-12T06:48:15;7.30;;;4.03;;
59390;SDS011;53405;57.012;40.984;2023-09-12T06:50:43;7.20;;;4.20;;
59390;SDS011;53405;57.012;40.984;2023-09-12T06:53:13;7.22;;;4.35;;
59390;SDS011;53405;57.012;40.984;2023-09-12T06:55:41;8.60;;;4.43;;
59390;SDS011;53405;57.012;40.984;2023-09-12T06:58:08;6.15;;;4.35;;
59390;SDS011;53405;57.012;40.984;2023-09-12T07:00:36;14.65;;;5.20;;
59390;SDS011;53405;57.012;40.984;2023-09-12T07:03:03;8.40;;;4.28;;
59390;SDS011;53405;57.012;40.984;2023-09-12T07:05:31;6.80;;;3.70;;
59390;SDS011;53405;57.012;40.984;2023-09-12T07:07:59;8.63;;;4.07;;
59390;SDS011;53405;57.012;40.984;2023-09-12T07:10:26;6.90;;;3.83;;
59390;SDS011;53405;57.012;40.984;2023-09-12T07:12:54;7.68;;;3.65;;
59390;SDS011;53405;57.012;40.984;2023-09-12T07:15:21;7.75;;;4.00;;
59390;SDS011;53405;57.012;40.984;2023-09-12T07:17:49;8.45;;;4.15;;
59390;SDS011;53405;57.012;40.984;2023-09-12T07:20:17;9.25;;;4.45;;
59390;SDS011;53405;57.012;40.984;2023-09-12T07:25:14;6.82;;;4.38;;
59390;SDS011;53405;57.012;40.984;2023-09-12T07:27:42;9.57;;;4.50;;
59390;SDS011;53405;57.012;40.984;2023-09-12T07:30:12;8.10;;;3.88;;
59390;SDS011;53405;57.012;40.984;2023-09-12T07:32:39;7.43;;;3.83;;
59390;SDS011;53405;57.012;40.984;2023-09-12T07:35:07;7.03;;;4.25;;
59390;SDS011;53405;57.012;40.984;2023-09-12T07:37:35;6.57;;;4.00;;
59390;SDS011;53405;57.012;40.984;2023-09-12T07:40:02;12.18;;;4.75;;
59390;SDS011;53405;57.012;40.984;2023-09-12T07:42:37;7.85;;;3.90;;
59390;SDS011;53405;57.012;40.984;2023-09-12T07:45:04;7.93;;;3.83;;
59390;SDS011;53405;57.012;40.984;2023-09-12T07:47:32;9.85;;;4.18;;
59390;SDS011;53405;57.012;40.984;2023-09-12T07:50:01;7.07;;;4.17;;
59390;SDS011;53405;57.012;40.984;2023-09-12T07:52:29;9.02;;;4.85;;
59390;SDS011;53405;57.012;40.984;2023-09-12T07:55:04;9.73;;;4.90;;
59390;SDS011;53405;57.012;40.984;2023-09-12T07:57:35;8.93;;;5.60;;
59390;SDS011;53405;57.012;40.984;2023-09-12T08:00:04;13.35;;;4.90;;
59390;SDS011;53405;57.012;40.984;2023-09-12T08:02:40;11.55;;;5.15;;
59390;SDS011;53405;57.012;40.984;2023-09-12T08:05:09;8.93;;;4.40;;
59390;SDS011;53405;57.012;40.984;2023-09-12T08:07:36;8.73;;;4.82;;
59390;SDS011;53405;57.012;40.984;2023-09-12T08:10:04;8.23;;;5.35;;
59390;SDS011;53405;57.012;40.984;2023-09-12T08:12:32;12.23;;;5.93;;
59390;SDS011;53405;57.012;40.984;2023-09-12T08:15:00;10.20;;;4.63;;
59390;SDS011;53405;57.012;40.984;2023-09-12T08:17:31;9.13;;;4.78;;
59390;SDS011;53405;57.012;40.984;2023-09-12T08:19:59;8.68;;;4.28;;
59390;SDS011;53405;57.012;40.984;2023-09-12T08:22:29;7.35;;;4.32;;
59390;SDS011;53405;57.012;40.984;2023-09-12T08:24:57;7.35;;;4.13;;
59390;SDS011;53405;57.012;40.984;2023-09-12T08:27:24;7.85;;;4.28;;
59390;SDS011;53405;57.012;40.984;2023-09-12T08:29:52;6.57;;;3.75;;
59390;SDS011;53405;57.012;40.984;2023-09-12T08:32:19;11.35;;;5.80;;
59390;SDS011;53405;57.012;40.984;2023-09-12T08:34:47;6.65;;;3.80;;
59390;SDS011;53405;57.012;40.984;2023-09-12T08:37:15;8.43;;;3.90;;
59390;SDS011;53405;57.012;40.984;2023-09-12T08:39:44;5.43;;;3.88;;
59390;SDS011;53405;57.012;40.984;2023-09-12T08:42:13;6.55;;;4.10;;
59390;SDS011;53405;57.012;40.984;2023-09-12T08:44:43;7.03;;;3.70;;
59390;SDS011;53405;57.012;40.984;2023-09-12T08:47:11;7.18;;;4.00;;
59390;SDS011;53405;57.012;40.984;2023-09-12T08:49:41;7.20;;;4.68;;
59390;SDS011;53405;57.012;40.984;2023-09-12T08:52:09;7.97;;;4.38;;
59390;SDS011;53405;57.012;40.984;2023-09-12T08:54:37;9.35;;;5.18;;
59390;SDS011;53405;57.012;40.984;2023-09-12T08:57:05;11.25;;;5.10;;
59390;SDS011;53405;57.012;40.984;2023-09-12T08:59:34;9.65;;;4.88;;
59390;SDS011;53405;57.012;40.984;2023-09-12T09:02:02;10.02;;;4.75;;
59390;SDS011;53405;57.012;40.984;2023-09-12T09:04:33;11.40;;;5.25;;
59390;SDS011;53405;57.012;40.984;2023-09-12T09:07:03;13.05;;;5.10;;
59390;SDS011;53405;57.012;40.984;2023-09-12T09:09:31;7.55;;;4.88;;
59390;SDS011;53405;57.012;40.984;2023-09-12T09:12:00;8.10;;;5.50;;
59390;SDS011;53405;57.012;40.984;2023-09-12T09:14:29;7.85;;;5.38;;
59390;SDS011;53405;57.012;40.984;2023-09-12T09:16:57;11.98;;;5.38;;
59390;SDS011;53405;57.012;40.984;2023-09-12T09:19:40;11.15;;;5.30;;
59390;SDS011;53405;57.012;40.984;2023-09-12T09:22:09;8.65;;;5.13;;
59390;SDS011;53405;57.012;40.984;2023-09-12T09:24:40;16.30;;;5.65;;
59390;SDS011;53405;57.012;40.984;2023-09-12T09:27:08;9.43;;;5.20;;
59390;SDS011;53405;57.012;40.984;2023-09-12T09:29:48;9.90;;;5.50;;
59390;SDS011;53405;57.012;40.984;2023-09-12T09:32:17;10.13;;;5.43;;
59390;SDS011;53405;57.012;40.984;2023-09-12T09:34:45;8.45;;;5.50;;
59390;SDS011;53405;57.012;40.984;2023-09-12T09:37:14;22.80;;;14.33;;
59390;SDS011;53405;57.012;40.984;2023-09-12T09:42:11;8.25;;;5.28;;
59390;SDS011;53405;57.012;40.984;2023-09-12T09:44:39;6.70;;;4.93;;
59390;SDS011;53405;57.012;40.984;2023-09-12T09:47:07;6.95;;;4.15;;
59390;SDS011;53405;57.012;40.984;2023-09-12T09:49:35;8.85;;;4.43;;
59390;SDS011;53405;57.012;40.984;2023-09-12T09:52:03;6.53;;;4.15;;
59390;SDS011;53405;57.012;40.984;2023-09-12T09:54:34;6.40;;;3.97;;
59390;SDS011;53405;57.012;40.984;2023-09-12T09:57:02;8.70;;;4.50;;
59390;SDS011;53405;57.012;40.984;2023-09-12T10:01:59;10.77;;;4.30;;
59390;SDS011;53405;57.012;40.984;2023-09-12T10:04:29;14.15;;;5.13;;
59390;SDS011;53405;57.012;40.984;2023-09-12T10:07:11;9.40;;;4.75;;
59390;SDS011;53405;57.012;40.984;2023-09-12T10:09:39;7.65;;;4.70;;
59390;SDS011;53405;57.012;40.984;2023-09-12T10:12:08;10.13;;;4.80;;
59390;SDS011;53405;57.012;40.984;2023-09-12T10:14:37;8.50;;;5.10;;
59390;SDS011;53405;57.012;40.984;2023-09-12T10:17:07;8.93;;;4.45;;
59390;SDS011;53405;57.012;40.984;2023-09-12T10:19:43;8.70;;;4.93;;
59390;SDS011;53405;57.012;40.984;2023-09-12T10:22:39;15.18;;;8.98;;
59390;SDS011;53405;57.012;40.984;2023-09-12T10:25:11;8.65;;;4.88;;
59390;SDS011;53405;57.012;40.984;2023-09-12T10:27:39;17.27;;;8.40;;
59390;SDS011;53405;57.012;40.984;2023-09-12T10:30:07;13.35;;;4.40;;
59390;SDS011;53405;57.012;40.984;2023-09-12T10:32:36;7.80;;;4.70;;
59390;SDS011;53405;57.012;40.984;2023-09-12T10:35:05;7.03;;;4.28;;
59390;SDS011;53405;57.012;40.984;2023-09-12T10:37:35;8.98;;;5.40;;
59390;SDS011;53405;57.012;40.984;2023-09-12T10:40:09;8.63;;;4.55;;
59390;SDS011;53405;57.012;40.984;2023-09-12T10:45:06;10.03;;;4.47;;
59390;SDS011;53405;57.012;40.984;2023-09-12T10:47:36;8.75;;;4.88;;
59390;SDS011;53405;57.012;40.984;2023-09-12T10:50:04;6.35;;;4.32;;
59390;SDS011;53405;57.012;40.984;2023-09-12T10:52:34;6.63;;;4.38;;
59390;SDS011;53405;57.012;40.984;2023-09-12T10:55:07;9.25;;;4.60;;
59390;SDS011;53405;57.012;40.984;2023-09-12T10:57:35;9.20;;;4.20;;
59390;SDS011;53405;57.012;40.984;2023-09-12T11:00:32;7.80;;;4.30;;
59390;SDS011;53405;57.012;40.984;2023-09-12T11:05:56;5.53;;;3.80;;
59390;SDS011;53405;57.012;40.984;2023-09-12T11:08:24;6.75;;;4.40;;
59390;SDS011;53405;57.012;40.984;2023-09-12T11:14:04;8.05;;;4.35;;
59390;SDS011;53405;57.012;40.984;2023-09-12T11:16:33;6.43;;;3.92;;
59390;SDS011;53405;57.012;40.984;2023-09-12T11:19:12;7.15;;;4.32;;
59390;SDS011;53405;57.012;40.984;2023-09-12T11:24:16;7.57;;;4.30;;
59390;SDS011;53405;57.012;40.984;2023-09-12T11:27:01;9.00;;;4.53;;
59390;SDS011;53405;57.012;40.984;2023-09-12T11:29:36;6.72;;;4.35;;
59390;SDS011;53405;57.012;40.984;2023-09-12T11:32:07;9.93;;;4.10;;
59390;SDS011;53405;57.012;40.984;2023-09-12T11:34:42;8.43;;;4.30;;
59390;SDS011;53405;57.012;40.984;2023-09-12T11:37:11;6.07;;;4.03;;
59390;SDS011;53405;57.012;40.984;2023-09-12T11:39:51;8.65;;;4.28;;
59390;SDS011;53405;57.012;40.984;2023-09-12T11:42:20;11.05;;;4.38;;
59390;SDS011;53405;57.012;40.984;2023-09-12T11:44:55;9.27;;;4.50;;
59390;SDS011;53405;57.012;40.984;2023-09-12T11:49:52;9.68;;;4.47;;
59390;SDS011;53405;57.012;40.984;2023-09-12T11:52:20;9.23;;;4.50;;
59390;SDS011;53405;57.012;40.984;2023-09-12T11:54:53;11.43;;;4.57;;
59390;SDS011;53405;57.012;40.984;2023-09-12T11:57:21;7.57;;;4.55;;
59390;SDS011;53405;57.012;40.984;2023-09-12T11:59:49;11.80;;;4.95;;
59390;SDS011;53405;57.012;40.984;2023-09-12T12:02:19;10.77;;;4.57;;
59390;SDS011;53405;57.012;40.984;2023-09-12T12:04:47;11.23;;;5.17;;
59390;SDS011;53405;57.012;40.984;2023-09-12T12:07:15;7.50;;;4.25;;
59390;SDS011;53405;57.012;40.984;2023-09-12T12:09:43;7.07;;;4.20;;
59390;SDS011;53405;57.012;40.984;2023-09-12T12:12:12;8.48;;;4.60;;
59390;SDS011;53405;57.012;40.984;2023-09-12T12:14:41;8.18;;;4.55;;
59390;SDS011;53405;57.012;40.984;2023-09-12T12:17:11;11.48;;;5.45;;
59390;SDS011;53405;57.012;40.984;2023-09-12T12:19:39;7.50;;;5.63;;
59390;SDS011;53405;57.012;40.984;2023-09-12T12:22:07;7.53;;;4.45;;
59390;SDS011;53405;57.012;40.984;2023-09-12T12:24:46;7.85;;;5.28;;
59390;SDS011;53405;57.012;40.984;2023-09-12T12:27:15;10.88;;;5.10;;
59390;SDS011;53405;57.012;40.984;2023-09-12T12:29:43;9.18;;;4.70;;
59390;SDS011;53405;57.012;40.984;2023-09-12T12:32:13;7.60;;;4.60;;
59390;SDS011;53405;57.012;40.984;2023-09-12T12:34:47;8.68;;;4.57;;
59390;SDS011;53405;57.012;40.984;2023-09-12T12:37:16;8.45;;;4.32;;
59390;SDS011;53405;57.012;40.984;2023-09-12T12:39:57;7.63;;;4.60;;
59390;SDS011;53405;57.012;40.984;2023-09-12T12:42:34;9.25;;;4.82;;
59390;SDS011;53405;57.012;40.984;2023-09-12T12:47:42;9.93;;;4.82;;
59390;SDS011;53405;57.012;40.984;2023-09-12T12:50:12;9.07;;;4.55;;
59390;SDS011;53405;57.012;40.984;2023-09-12T12:52:41;12.98;;;5.18;;
59390;SDS011;53405;57.012;40.984;2023-09-12T12:55:12;6.70;;;4.40;;
59390;SDS011;53405;57.012;40.984;2023-09-12T12:57:41;6.78;;;4.05;;
59390;SDS011;53405;57.012;40.984;2023-09-12T13:00:11;7.15;;;4.07;;
59390;SDS011;53405;57.012;40.984;2023-09-12T13:02:41;7.10;;;4.10;;
59390;SDS011;53405;57.012;40.984;2023-09-12T13:05:20;6.93;;;3.75;;
59390;SDS011;53405;57.012;40.984;2023-09-12T13:07:49;6.25;;;4.35;;
59390;SDS011;53405;57.012;40.984;2023-09-12T13:10:22;7.25;;;4.03;;
59390;SDS011;53405;57.012;40.984;2023-09-12T13:12:50;8.05;;;4.53;;
59390;SDS011;53405;57.012;40.984;2023-09-12T13:15:18;7.97;;;4.85;;
59390;SDS011;53405;57.012;40.984;2023-09-12T13:17:46;9.73;;;5.10;;
59390;SDS011;53405;57.012;40.984;2023-09-12T13:20:13;10.75;;;4.93;;
59390;SDS011;53405;57.012;40.984;2023-09-12T13:22:41;9.95;;;4.93;;
59390;SDS011;53405;57.012;40.984;2023-09-12T13:27:38;11.23;;;5.30;;
59390;SDS011;53405;57.012;40.984;2023-09-12T13:30:06;9.88;;;5.13;;
59390;SDS011;53405;57.012;40.984;2023-09-12T13:32:34;26.70;;;6.63;;
59390;SDS011;53405;57.012;40.984;2023-09-12T13:35:03;15.10;;;5.18;;
59390;SDS011;53405;57.012;40.984;2023-09-12T13:37:30;11.45;;;4.80;;
59390;SDS011;53405;57.012;40.984;2023-09-12T13:39:58;13.48;;;6.72;;
59390;SDS011;53405;57.012;40.984;2023-09-12T13:42:27;7.38;;;5.30;;
59390;SDS011;53405;57.012;40.984;2023-09-12T13:44:58;10.23;;;4.93;;
59390;SDS011;53405;57.012;40.984;2023-09-12T13:47:26;15.90;;;4.67;;
59390;SDS011;53405;57.012;40.984;2023-09-12T13:49:54;11.73;;;4.93;;
59390;SDS011;53405;57.012;40.984;2023-09-12T13:52:22;7.55;;;4.25;;
59390;SDS011;53405;57.012;40.984;2023-09-12T13:54:50;8.80;;;4.88;;
59390;SDS011;53405;57.012;40.984;2023-09-12T13:57:18;9.27;;;4.45;;
59390;SDS011;53405;57.012;40.984;2023-09-12T13:59:46;7.38;;;4.65;;
59390;SDS011;53405;57.012;40.984;2023-09-12T14:02:14;8.02;;;4.88;;
59390;SDS011;53405;57.012;40.984;2023-09-12T14:04:42;11.68;;;4.85;;
59390;SDS011;53405;57.012;40.984;2023-09-12T14:07:10;6.95;;;4.53;;
59390;SDS011;53405;57.012;40.984;2023-09-12T14:09:38;7.78;;;4.50;;
59390;SDS011;53405;57.012;40.984;2023-09-12T14:12:07;7.38;;;4.40;;
59390;SDS011;53405;57.012;40.984;2023-09-12T14:14:41;9.43;;;4.30;;
59390;SDS011;53405;57.012;40.984;2023-09-12T14:17:09;9.93;;;5.07;;
59390;SDS011;53405;57.012;40.984;2023-09-12T14:19:37;11.80;;;6.38;;
59390;SDS011;53405;57.012;40.984;2023-09-12T14:22:05;15.40;;;8.05;;
59390;SDS011;53405;57.012;40.984;2023-09-12T14:24:33;13.70;;;9.50;;
59390;SDS011;53405;57.012;40.984;2023-09-12T14:27:01;8.70;;;6.30;;
59390;SDS011;53405;57.012;40.984;2023-09-12T14:29:30;13.45;;;6.30;;
59390;SDS011;53405;57.012;40.984;2023-09-12T14:31:58;12.20;;;7.05;;
59390;SDS011;53405;57.012;40.984;2023-09-12T14:34:26;16.17;;;6.68;;
59390;SDS011;53405;57.012;40.984;2023-09-12T14:36:55;12.83;;;6.67;;
59390;SDS011;53405;57.012;40.984;2023-09-12T14:39:23;11.50;;;6.70;;
59390;SDS011;53405;57.012;40.984;2023-09-12T14:41:51;14.50;;;7.13;;
59390;SDS011;53405;57.012;40.984;2023-09-12T14:44:19;15.30;;;7.88;;
59390;SDS011;53405;57.012;40.984;2023-09-12T14:46:50;17.35;;;8.40;;
59390;SDS011;53405;57.012;40.984;2023-09-12T14:49:18;15.07;;;7.30;;
59390;SDS011;53405;57.012;40.984;2023-09-12T14:51:45;12.18;;;7.32;;
59390;SDS011;53405;57.012;40.984;2023-09-12T14:54:13;12.00;;;6.30;;
59390;SDS011;53405;57.012;40.984;2023-09-12T14:56:41;11.65;;;6.57;;
59390;SDS011;53405;57.012;40.984;2023-09-12T14:59:09;8.77;;;5.85;;
59390;SDS011;53405;57.012;40.984;2023-09-12T15:01:37;13.00;;;6.90;;
59390;SDS011;53405;57.012;40.984;2023-09-12T15:04:15;10.68;;;5.90;;
59390;SDS011;53405;57.012;40.984;2023-09-12T15:09:12;10.13;;;5.85;;
59390;SDS011;53405;57.012;40.984;2023-09-12T15:11:40;11.93;;;5.50;;